sensor_id;sensor_type;location;lat;lon;timestamp;pressure;altitude;pressure_sealevel;temperature;humidity
55442;BME280;41313;58.740;50.174;2022-11-02T00:04:41;98975.50;;;6.77;54.61
55442;BME280;41313;58.740;50.174;2022-11-02T00:09:43;98976.19;;;6.65;54.46
55442;BME280;41313;58.740;50.174;2022-11-02T00:14:44;98977.06;;;6.49;54.77
55442;BME280;41313;58.740;50.174;2022-11-02T00:19:45;98966.53;;;6.67;54.79
55442;BME280;41313;58.740;50.174;2022-11-02T00:24:47;98963.25;;;6.31;55.69
55442;BME280;41313;58.740;50.174;2022-11-02T00:29:49;98959.84;;;6.77;54.60
55442;BME280;41313;58.740;50.174;2022-11-02T00:34:51;98954.97;;;6.07;56.13
55442;BME280;41313;58.740;50.174;2022-11-02T00:39:52;98961.22;;;6.21;55.36
55442;BME280;41313;58.740;50.174;2022-11-02T00:44:54;98955.63;;;5.95;56.54
55442;BME280;41313;58.740;50.174;2022-11-02T00:49:55;98955.16;;;6.36;55.08
55442;BME280;41313;58.740;50.174;2022-11-02T00:54:56;98951.72;;;5.86;56.14
55442;BME280;41313;58.740;50.174;2022-11-02T00:59:58;98961.38;;;6.18;55.36
55442;BME280;41313;58.740;50.174;2022-11-02T01:04:59;98934.28;;;6.52;55.49
55442;BME280;41313;58.740;50.174;2022-11-02T01:10:01;98913.75;;;6.14;56.05
55442;BME280;41313;58.740;50.174;2022-11-02T01:15:05;98910.19;;;6.47;55.00
55442;BME280;41313;58.740;50.174;2022-11-02T01:20:08;98908.09;;;6.99;54.32
55442;BME280;41313;58.740;50.174;2022-11-02T01:25:10;98910.69;;;6.53;55.35
55442;BME280;41313;58.740;50.174;2022-11-02T01:30:12;98923.09;;;6.34;56.06
55442;BME280;41313;58.740;50.174;2022-11-02T01:35:14;98944.53;;;6.23;56.00
55442;BME280;41313;58.740;50.174;2022-11-02T01:40:16;98927.72;;;6.29;56.36
55442;BME280;41313;58.740;50.174;2022-11-02T01:45:18;98937.66;;;6.22;56.34
55442;BME280;41313;58.740;50.174;2022-11-02T01:50:22;98928.47;;;6.15;56.47
55442;BME280;41313;58.740;50.174;2022-11-02T01:55:29;98926.63;;;5.84;57.74
55442;BME280;41313;58.740;50.174;2022-11-02T02:00:31;98934.94;;;6.24;56.84
55442;BME280;41313;58.740;50.174;2022-11-02T02:05:39;98936.44;;;6.59;55.51
55442;BME280;41313;58.740;50.174;2022-11-02T02:10:42;98935.53;;;6.29;56.30
55442;BME280;41313;58.740;50.174;2022-11-02T02:16:10;98926.19;;;5.76;57.91
55442;BME280;41313;58.740;50.174;2022-11-02T02:26:45;98911.97;;;6.30;55.96
55442;BME280;41313;58.740;50.174;2022-11-02T02:31:58;98924.69;;;6.21;56.61
55442;BME280;41313;58.740;50.174;2022-11-02T02:37:10;98923.69;;;5.90;57.33
55442;BME280;41313;58.740;50.174;2022-11-02T02:42:32;98909.25;;;6.00;58.06
55442;BME280;41313;58.740;50.174;2022-11-02T02:47:43;98907.31;;;6.51;56.23
55442;BME280;41313;58.740;50.174;2022-11-02T02:52:49;98926.19;;;6.56;56.35
55442;BME280;41313;58.740;50.174;2022-11-02T02:57:53;98930.19;;;6.78;55.29
55442;BME280;41313;58.740;50.174;2022-11-02T03:02:57;98919.59;;;6.65;55.43
55442;BME280;41313;58.740;50.174;2022-11-02T03:08:09;98907.16;;;6.54;55.78
55442;BME280;41313;58.740;50.174;2022-11-02T03:18:48;98931.06;;;6.78;55.17
55442;BME280;41313;58.740;50.174;2022-11-02T03:24:21;98936.94;;;6.66;55.76
55442;BME280;41313;58.740;50.174;2022-11-02T03:34:57;98922.66;;;6.26;57.17
55442;BME280;41313;58.740;50.174;2022-11-02T03:40:06;98914.94;;;6.40;57.14
55442;BME280;41313;58.740;50.174;2022-11-02T03:45:22;98915.44;;;6.31;57.57
55442;BME280;41313;58.740;50.174;2022-11-02T03:50:25;98911.13;;;6.14;57.84
55442;BME280;41313;58.740;50.174;2022-11-02T03:55:36;98914.69;;;6.75;56.49
55442;BME280;41313;58.740;50.174;2022-11-02T04:00:51;98938.63;;;6.51;56.26
55442;BME280;41313;58.740;50.174;2022-11-02T04:05:54;98916.25;;;6.47;57.29
55442;BME280;41313;58.740;50.174;2022-11-02T04:11:01;98926.84;;;6.12;58.76
55442;BME280;41313;58.740;50.174;2022-11-02T04:16:23;98922.75;;;6.40;57.42
55442;BME280;41313;58.740;50.174;2022-11-02T04:21:25;98910.69;;;6.06;58.37
55442;BME280;41313;58.740;50.174;2022-11-02T04:26:27;98911.47;;;6.24;57.97
55442;BME280;41313;58.740;50.174;2022-11-02T04:31:29;98916.41;;;6.60;56.51
55442;BME280;41313;58.740;50.174;2022-11-02T04:36:31;98916.00;;;6.36;57.22
55442;BME280;41313;58.740;50.174;2022-11-02T04:41:33;98906.41;;;6.52;57.24
55442;BME280;41313;58.740;50.174;2022-11-02T04:46:55;98905.22;;;6.42;57.73
55442;BME280;41313;58.740;50.174;2022-11-02T04:52:00;98908.56;;;6.60;56.85
55442;BME280;41313;58.740;50.174;2022-11-02T04:57:03;98923.22;;;6.62;57.04
55442;BME280;41313;58.740;50.174;2022-11-02T05:02:07;98919.63;;;6.49;57.35
55442;BME280;41313;58.740;50.174;2022-11-02T05:07:10;98911.78;;;6.65;57.34
55442;BME280;41313;58.740;50.174;2022-11-02T05:12:13;98911.13;;;6.46;57.55
55442;BME280;41313;58.740;50.174;2022-11-02T05:17:15;98907.59;;;5.99;58.54
55442;BME280;41313;58.740;50.174;2022-11-02T05:22:17;98921.47;;;6.15;57.86
55442;BME280;41313;58.740;50.174;2022-11-02T05:27:20;98901.53;;;6.14;58.21
55442;BME280;41313;58.740;50.174;2022-11-02T05:32:22;98908.84;;;6.55;57.62
55442;BME280;41313;58.740;50.174;2022-11-02T05:37:24;98912.88;;;6.45;57.74
55442;BME280;41313;58.740;50.174;2022-11-02T05:42:26;98910.78;;;6.20;58.80
55442;BME280;41313;58.740;50.174;2022-11-02T05:47:28;98904.16;;;6.14;59.11
55442;BME280;41313;58.740;50.174;2022-11-02T05:52:30;98906.50;;;6.35;58.16
55442;BME280;41313;58.740;50.174;2022-11-02T05:57:31;98923.28;;;6.77;57.24
55442;BME280;41313;58.740;50.174;2022-11-02T06:02:33;98899.19;;;6.26;58.05
55442;BME280;41313;58.740;50.174;2022-11-02T06:07:34;98905.56;;;6.36;58.17
55442;BME280;41313;58.740;50.174;2022-11-02T06:12:36;98910.22;;;6.31;58.09
55442;BME280;41313;58.740;50.174;2022-11-02T06:17:38;98915.94;;;6.22;58.69
55442;BME280;41313;58.740;50.174;2022-11-02T06:22:40;98901.31;;;6.19;58.72
55442;BME280;41313;58.740;50.174;2022-11-02T06:27:51;98906.84;;;6.13;58.21
55442;BME280;41313;58.740;50.174;2022-11-02T06:32:54;98903.03;;;6.03;59.44
55442;BME280;41313;58.740;50.174;2022-11-02T06:37:56;98905.81;;;6.15;58.70
55442;BME280;41313;58.740;50.174;2022-11-02T06:42:57;98902.13;;;6.20;59.23
55442;BME280;41313;58.740;50.174;2022-11-02T06:47:59;98913.22;;;6.39;58.39
55442;BME280;41313;58.740;50.174;2022-11-02T06:53:01;98899.59;;;6.18;59.45
55442;BME280;41313;58.740;50.174;2022-11-02T06:58:02;98903.47;;;6.27;59.40
55442;BME280;41313;58.740;50.174;2022-11-02T07:03:06;98904.38;;;6.57;58.06
55442;BME280;41313;58.740;50.174;2022-11-02T07:08:07;98906.50;;;6.35;59.12
55442;BME280;41313;58.740;50.174;2022-11-02T07:13:09;98910.28;;;6.29;59.24
55442;BME280;41313;58.740;50.174;2022-11-02T07:18:11;98913.06;;;6.26;59.57
55442;BME280;41313;58.740;50.174;2022-11-02T07:23:13;98922.97;;;6.04;59.92
55442;BME280;41313;58.740;50.174;2022-11-02T07:28:14;98920.03;;;5.77;62.41
55442;BME280;41313;58.740;50.174;2022-11-02T07:33:16;98923.75;;;5.39;62.63
55442;BME280;41313;58.740;50.174;2022-11-02T07:38:18;98925.91;;;5.64;61.79
55442;BME280;41313;58.740;50.174;2022-11-02T07:43:19;98911.28;;;5.62;62.10
55442;BME280;41313;58.740;50.174;2022-11-02T07:48:47;98927.69;;;5.97;61.14
55442;BME280;41313;58.740;50.174;2022-11-02T07:53:48;98917.81;;;5.53;63.13
55442;BME280;41313;58.740;50.174;2022-11-02T07:58:50;98907.63;;;5.82;62.14
55442;BME280;41313;58.740;50.174;2022-11-02T08:03:51;98912.06;;;5.80;62.61
55442;BME280;41313;58.740;50.174;2022-11-02T08:08:52;98919.66;;;5.51;62.58
55442;BME280;41313;58.740;50.174;2022-11-02T08:13:54;98915.03;;;5.89;62.58
55442;BME280;41313;58.740;50.174;2022-11-02T08:18:55;98918.03;;;5.99;61.87
55442;BME280;41313;58.740;50.174;2022-11-02T08:23:59;98913.31;;;5.72;62.64
55442;BME280;41313;58.740;50.174;2022-11-02T08:29:01;98912.50;;;5.88;62.02
55442;BME280;41313;58.740;50.174;2022-11-02T08:34:03;98912.81;;;5.99;61.68
55442;BME280;41313;58.740;50.174;2022-11-02T08:39:04;98926.69;;;6.00;61.87
55442;BME280;41313;58.740;50.174;2022-11-02T08:44:06;98927.53;;;5.83;62.02
55442;BME280;41313;58.740;50.174;2022-11-02T08:49:07;98932.50;;;6.21;61.15
55442;BME280;41313;58.740;50.174;2022-11-02T08:54:09;98927.00;;;5.93;61.56
55442;BME280;41313;58.740;50.174;2022-11-02T08:59:10;98931.09;;;5.82;62.14
55442;BME280;41313;58.740;50.174;2022-11-02T09:04:12;98940.50;;;5.84;62.65
55442;BME280;41313;58.740;50.174;2022-11-02T09:09:13;98949.16;;;5.85;62.36
55442;BME280;41313;58.740;50.174;2022-11-02T09:14:15;98921.81;;;5.93;63.00
55442;BME280;41313;58.740;50.174;2022-11-02T09:19:16;98927.13;;;6.24;61.50
55442;BME280;41313;58.740;50.174;2022-11-02T09:24:18;98926.28;;;6.23;61.29
55442;BME280;41313;58.740;50.174;2022-11-02T09:29:19;98922.84;;;6.23;61.90
55442;BME280;41313;58.740;50.174;2022-11-02T09:34:21;98934.78;;;5.95;61.79
55442;BME280;41313;58.740;50.174;2022-11-02T09:39:22;98929.72;;;6.24;61.21
55442;BME280;41313;58.740;50.174;2022-11-02T09:44:40;98926.78;;;6.14;62.30
55442;BME280;41313;58.740;50.174;2022-11-02T09:49:46;98925.84;;;6.47;61.47
55442;BME280;41313;58.740;50.174;2022-11-02T09:54:50;98941.88;;;6.25;61.70
55442;BME280;41313;58.740;50.174;2022-11-02T09:59:52;98937.38;;;5.95;62.47
55442;BME280;41313;58.740;50.174;2022-11-02T10:05:13;98934.44;;;6.65;61.25
55442;BME280;41313;58.740;50.174;2022-11-02T10:10:31;98931.41;;;6.56;60.53
55442;BME280;41313;58.740;50.174;2022-11-02T10:20:50;98941.97;;;6.85;60.96
55442;BME280;41313;58.740;50.174;2022-11-02T10:25:54;98942.75;;;6.87;59.90
55442;BME280;41313;58.740;50.174;2022-11-02T10:30:56;98940.00;;;6.27;61.80
55442;BME280;41313;58.740;50.174;2022-11-02T10:36:25;98952.97;;;6.44;60.88
55442;BME280;41313;58.740;50.174;2022-11-02T10:47:23;98949.06;;;6.51;60.61
55442;BME280;41313;58.740;50.174;2022-11-02T10:52:35;98955.06;;;6.53;61.05
55442;BME280;41313;58.740;50.174;2022-11-02T10:57:38;98972.69;;;7.12;59.95
55442;BME280;41313;58.740;50.174;2022-11-02T11:02:40;98962.59;;;7.05;59.42
55442;BME280;41313;58.740;50.174;2022-11-02T11:07:42;98972.69;;;6.96;59.72
55442;BME280;41313;58.740;50.174;2022-11-02T11:12:45;98967.53;;;7.10;59.46
55442;BME280;41313;58.740;50.174;2022-11-02T11:17:47;98981.41;;;7.11;59.13
55442;BME280;41313;58.740;50.174;2022-11-02T11:28:55;98978.63;;;7.14;59.58
55442;BME280;41313;58.740;50.174;2022-11-02T11:33:57;98982.84;;;6.70;60.93
55442;BME280;41313;58.740;50.174;2022-11-02T11:39:20;98988.59;;;7.23;59.64
55442;BME280;41313;58.740;50.174;2022-11-02T11:44:23;98999.84;;;6.93;59.92
55442;BME280;41313;58.740;50.174;2022-11-02T11:49:31;99001.06;;;7.18;59.31
55442;BME280;41313;58.740;50.174;2022-11-02T11:54:34;99008.06;;;7.17;58.86
55442;BME280;41313;58.740;50.174;2022-11-02T12:04:44;99013.66;;;6.95;59.82
55442;BME280;41313;58.740;50.174;2022-11-02T12:15:01;99017.09;;;7.42;58.82
55442;BME280;41313;58.740;50.174;2022-11-02T12:20:12;99032.84;;;7.40;57.75
55442;BME280;41313;58.740;50.174;2022-11-02T12:30:23;99033.38;;;7.31;58.41
55442;BME280;41313;58.740;50.174;2022-11-02T12:35:41;99038.66;;;7.15;58.06
55442;BME280;41313;58.740;50.174;2022-11-02T12:46:06;99051.63;;;7.17;58.51
55442;BME280;41313;58.740;50.174;2022-11-02T12:51:16;99055.19;;;7.00;59.07
55442;BME280;41313;58.740;50.174;2022-11-02T12:56:26;99049.78;;;7.19;58.63
55442;BME280;41313;58.740;50.174;2022-11-02T13:01:35;99057.03;;;7.14;58.38
55442;BME280;41313;58.740;50.174;2022-11-02T13:06:42;99055.88;;;6.88;59.68
55442;BME280;41313;58.740;50.174;2022-11-02T13:12:04;99062.41;;;7.11;58.98
55442;BME280;41313;58.740;50.174;2022-11-02T13:22:26;99069.34;;;6.96;60.06
55442;BME280;41313;58.740;50.174;2022-11-02T13:27:45;99072.66;;;6.99;60.14
55442;BME280;41313;58.740;50.174;2022-11-02T13:33:17;99071.53;;;6.72;60.66
55442;BME280;41313;58.740;50.174;2022-11-02T13:44:40;99078.59;;;7.01;59.66
55442;BME280;41313;58.740;50.174;2022-11-02T13:49:29;99080.78;;;7.25;59.08
55442;BME280;41313;58.740;50.174;2022-11-02T13:59:44;99098.50;;;6.88;60.18
55442;BME280;41313;58.740;50.174;2022-11-02T14:04:47;99100.41;;;6.69;60.80
55442;BME280;41313;58.740;50.174;2022-11-02T14:09:56;99104.75;;;7.17;59.79
55442;BME280;41313;58.740;50.174;2022-11-02T14:25:45;99111.69;;;7.48;59.58
55442;BME280;41313;58.740;50.174;2022-11-02T14:36:36;99107.59;;;7.13;60.85
55442;BME280;41313;58.740;50.174;2022-11-02T14:42:07;99111.41;;;7.07;60.14
55442;BME280;41313;58.740;50.174;2022-11-02T14:47:16;99122.13;;;7.02;60.26
55442;BME280;41313;58.740;50.174;2022-11-02T14:52:32;99120.47;;;6.68;61.16
55442;BME280;41313;58.740;50.174;2022-11-02T14:57:39;99138.19;;;7.11;61.08
55442;BME280;41313;58.740;50.174;2022-11-02T15:02:42;99118.06;;;6.97;60.33
55442;BME280;41313;58.740;50.174;2022-11-02T15:07:51;99138.44;;;7.22;60.61
55442;BME280;41313;58.740;50.174;2022-11-02T15:18:31;99126.50;;;7.18;61.13
55442;BME280;41313;58.740;50.174;2022-11-02T15:24:13;99131.44;;;7.22;60.28
55442;BME280;41313;58.740;50.174;2022-11-02T15:34:48;99134.97;;;7.37;59.78
55442;BME280;41313;58.740;50.174;2022-11-02T15:40:01;99143.31;;;7.60;59.31
55442;BME280;41313;58.740;50.174;2022-11-02T15:50:43;99155.44;;;7.61;59.12
55442;BME280;41313;58.740;50.174;2022-11-02T15:56:09;99146.03;;;7.42;60.09
55442;BME280;41313;58.740;50.174;2022-11-02T16:01:22;99154.63;;;7.13;60.02
55442;BME280;41313;58.740;50.174;2022-11-02T16:06:29;99159.53;;;7.50;58.72
55442;BME280;41313;58.740;50.174;2022-11-02T16:11:31;99163.56;;;7.08;60.13
55442;BME280;41313;58.740;50.174;2022-11-02T16:16:45;99165.75;;;7.48;59.39
55442;BME280;41313;58.740;50.174;2022-11-02T16:21:47;99169.13;;;7.34;60.15
55442;BME280;41313;58.740;50.174;2022-11-02T16:26:49;99174.78;;;7.42;60.04
55442;BME280;41313;58.740;50.174;2022-11-02T16:31:51;99174.47;;;7.79;59.20
55442;BME280;41313;58.740;50.174;2022-11-02T16:36:53;99185.91;;;7.30;59.83
55442;BME280;41313;58.740;50.174;2022-11-02T16:41:57;99176.72;;;7.54;59.80
55442;BME280;41313;58.740;50.174;2022-11-02T16:47:15;99177.47;;;7.57;60.11
55442;BME280;41313;58.740;50.174;2022-11-02T16:52:20;99181.53;;;7.62;59.72
55442;BME280;41313;58.740;50.174;2022-11-02T16:57:24;99185.56;;;7.68;59.28
55442;BME280;41313;58.740;50.174;2022-11-02T17:02:37;99184.56;;;7.54;59.65
55442;BME280;41313;58.740;50.174;2022-11-02T17:07:41;99183.22;;;7.16;60.67
55442;BME280;41313;58.740;50.174;2022-11-02T17:12:46;99188.34;;;7.49;59.44
55442;BME280;41313;58.740;50.174;2022-11-02T17:17:50;99179.91;;;7.28;60.06
55442;BME280;41313;58.740;50.174;2022-11-02T17:23:33;99184.03;;;7.00;60.69
55442;BME280;41313;58.740;50.174;2022-11-02T17:33:42;99186.34;;;7.38;59.64
55442;BME280;41313;58.740;50.174;2022-11-02T17:38:44;99198.59;;;7.38;60.04
55442;BME280;41313;58.740;50.174;2022-11-02T17:43:46;99192.22;;;7.58;59.60
55442;BME280;41313;58.740;50.174;2022-11-02T17:48:47;99186.31;;;7.70;59.70
55442;BME280;41313;58.740;50.174;2022-11-02T17:53:49;99198.81;;;7.49;59.96
55442;BME280;41313;58.740;50.174;2022-11-02T17:58:50;99200.28;;;7.85;60.08
55442;BME280;41313;58.740;50.174;2022-11-02T18:03:52;99195.53;;;7.45;60.52
55442;BME280;41313;58.740;50.174;2022-11-02T18:08:53;99200.84;;;7.60;59.53
55442;BME280;41313;58.740;50.174;2022-11-02T18:14:15;99207.91;;;7.58;59.78
55442;BME280;41313;58.740;50.174;2022-11-02T18:19:16;99191.06;;;7.47;60.22
55442;BME280;41313;58.740;50.174;2022-11-02T18:24:18;99199.81;;;7.46;59.22
55442;BME280;41313;58.740;50.174;2022-11-02T18:29:19;99207.09;;;7.41;59.96
55442;BME280;41313;58.740;50.174;2022-11-02T18:34:21;99195.84;;;7.55;59.34
55442;BME280;41313;58.740;50.174;2022-11-02T18:39:23;99211.09;;;7.94;58.76
55442;BME280;41313;58.740;50.174;2022-11-02T18:44:24;99199.81;;;7.62;59.32
55442;BME280;41313;58.740;50.174;2022-11-02T18:49:26;99205.25;;;7.89;57.97
55442;BME280;41313;58.740;50.174;2022-11-02T18:54:27;99213.22;;;7.24;59.76
55442;BME280;41313;58.740;50.174;2022-11-02T18:59:29;99205.69;;;7.97;58.46
55442;BME280;41313;58.740;50.174;2022-11-02T19:04:31;99216.66;;;7.88;58.14
55442;BME280;41313;58.740;50.174;2022-11-02T19:09:32;99209.91;;;7.84;58.28
55442;BME280;41313;58.740;50.174;2022-11-02T19:14:37;99199.91;;;8.07;57.98
55442;BME280;41313;58.740;50.174;2022-11-02T19:19:40;99212.78;;;7.64;59.49
55442;BME280;41313;58.740;50.174;2022-11-02T19:24:43;99205.69;;;7.82;58.59
55442;BME280;41313;58.740;50.174;2022-11-02T19:29:44;99207.56;;;7.80;58.92
55442;BME280;41313;58.740;50.174;2022-11-02T19:34:46;99211.81;;;7.96;58.36
55442;BME280;41313;58.740;50.174;2022-11-02T19:39:47;99211.25;;;7.91;58.83
55442;BME280;41313;58.740;50.174;2022-11-02T19:44:49;99203.53;;;7.42;58.92
55442;BME280;41313;58.740;50.174;2022-11-02T19:49:50;99204.00;;;7.81;58.69
55442;BME280;41313;58.740;50.174;2022-11-02T19:54:52;99204.31;;;8.06;57.46
55442;BME280;41313;58.740;50.174;2022-11-02T19:59:54;99214.50;;;8.41;57.66
55442;BME280;41313;58.740;50.174;2022-11-02T20:04:55;99206.81;;;8.08;57.98
55442;BME280;41313;58.740;50.174;2022-11-02T20:09:57;99208.09;;;8.31;56.86
55442;BME280;41313;58.740;50.174;2022-11-02T20:14:58;99207.59;;;8.40;57.36
55442;BME280;41313;58.740;50.174;2022-11-02T20:19:59;99201.00;;;8.03;57.43
55442;BME280;41313;58.740;50.174;2022-11-02T20:25:01;99196.97;;;7.97;58.38
55442;BME280;41313;58.740;50.174;2022-11-02T20:30:03;99191.41;;;8.03;57.90
55442;BME280;41313;58.740;50.174;2022-11-02T20:35:06;99197.28;;;7.61;58.92
55442;BME280;41313;58.740;50.174;2022-11-02T20:40:07;99196.63;;;7.57;59.10
55442;BME280;41313;58.740;50.174;2022-11-02T20:45:09;99206.75;;;7.47;59.17
55442;BME280;41313;58.740;50.174;2022-11-02T20:50:11;99216.94;;;7.36;59.31
55442;BME280;41313;58.740;50.174;2022-11-02T20:55:12;99207.75;;;7.61;60.08
55442;BME280;41313;58.740;50.174;2022-11-02T21:00:16;99204.38;;;7.59;59.00
55442;BME280;41313;58.740;50.174;2022-11-02T21:05:18;99195.81;;;7.87;58.94
55442;BME280;41313;58.740;50.174;2022-11-02T21:10:19;99185.16;;;7.90;58.71
55442;BME280;41313;58.740;50.174;2022-11-02T21:15:21;99188.81;;;7.87;59.17
55442;BME280;41313;58.740;50.174;2022-11-02T21:20:22;99192.63;;;8.12;57.88
55442;BME280;41313;58.740;50.174;2022-11-02T21:25:24;99203.59;;;7.72;59.06
55442;BME280;41313;58.740;50.174;2022-11-02T21:30:27;99203.66;;;7.87;58.85
55442;BME280;41313;58.740;50.174;2022-11-02T21:35:30;99203.00;;;7.83;58.92
55442;BME280;41313;58.740;50.174;2022-11-02T21:40:32;99201.72;;;8.20;58.21
55442;BME280;41313;58.740;50.174;2022-11-02T21:45:34;99205.63;;;7.83;58.46
55442;BME280;41313;58.740;50.174;2022-11-02T21:50:35;99214.06;;;7.88;58.44
55442;BME280;41313;58.740;50.174;2022-11-02T21:55:36;99205.31;;;7.73;59.53
55442;BME280;41313;58.740;50.174;2022-11-02T22:00:38;99212.94;;;7.92;57.97
55442;BME280;41313;58.740;50.174;2022-11-02T22:05:58;99225.66;;;7.98;57.36
55442;BME280;41313;58.740;50.174;2022-11-02T22:11:00;99210.94;;;7.66;58.16
55442;BME280;41313;58.740;50.174;2022-11-02T22:16:24;99216.94;;;7.36;59.55
55442;BME280;41313;58.740;50.174;2022-11-02T22:21:29;99206.13;;;7.74;58.94
55442;BME280;41313;58.740;50.174;2022-11-02T22:26:33;99220.34;;;7.38;59.91
55442;BME280;41313;58.740;50.174;2022-11-02T22:31:37;99213.53;;;7.97;58.78
55442;BME280;41313;58.740;50.174;2022-11-02T22:36:41;99220.78;;;7.92;58.91
55442;BME280;41313;58.740;50.174;2022-11-02T22:41:46;99218.44;;;7.40;60.28
55442;BME280;41313;58.740;50.174;2022-11-02T22:46:49;99211.72;;;7.36;59.92
55442;BME280;41313;58.740;50.174;2022-11-02T22:51:51;99212.22;;;7.27;59.95
55442;BME280;41313;58.740;50.174;2022-11-02T22:56:54;99218.38;;;7.26;60.33
55442;BME280;41313;58.740;50.174;2022-11-02T23:01:55;99208.75;;;7.74;58.73
55442;BME280;41313;58.740;50.174;2022-11-02T23:06:57;99210.25;;;7.78;58.49
55442;BME280;41313;58.740;50.174;2022-11-02T23:11:58;99215.06;;;7.70;58.53
55442;BME280;41313;58.740;50.174;2022-11-02T23:17:00;99206.75;;;7.47;59.58
55442;BME280;41313;58.740;50.174;2022-11-02T23:22:09;99211.63;;;7.53;58.91
55442;BME280;41313;58.740;50.174;2022-11-02T23:27:34;99207.56;;;7.64;58.81
55442;BME280;41313;58.740;50.174;2022-11-02T23:32:56;99210.78;;;7.21;59.76
55442;BME280;41313;58.740;50.174;2022-11-02T23:38:02;99216.72;;;7.41;60.13
55442;BME280;41313;58.740;50.174;2022-11-02T23:43:04;99213.78;;;7.14;60.11
55442;BME280;41313;58.740;50.174;2022-11-02T23:48:08;99215.09;;;7.38;59.31
55442;BME280;41313;58.740;50.174;2022-11-02T23:53:11;99220.06;;;7.27;59.48
55442;BME280;41313;58.740;50.174;2022-11-02T23:58:31;99212.41;;;7.56;58.32
